Time;durP1;ratioP1;P1;durP2;ratioP2;P2;SDS_P1;SDS_P2;PMS_P1;PMS_P2;Temp;Humidity;BMP_temperature;BMP_pressure;BME280_temperature;BME280_humidity;BME280_pressure;Samples;Min_cycle;Max_cycle;Signal;HPM_P1;HPM_P2
2023/06/02 00:02:08;;;;;;;2.97;0.52;;;6.30;99.90;;;;;;4886786;29;20059;-76
2023/06/02 00:04:37;;;;;;;2.03;1.02;;;6.30;99.90;;;;;;4882801;29;20104;-76
2023/06/02 00:07:07;;;;;;;3.42;0.68;;;6.30;99.90;;;;;;4867799;29;20400;-77
2023/06/02 00:09:39;;;;;;;1.70;0.90;;;6.30;99.90;;;;;;4907139;29;20096;-76
2023/06/02 00:12:08;;;;;;;4.15;0.80;;;6.30;99.90;;;;;;4884019;29;20146;-77
2023/06/02 00:14:37;;;;;;;1.45;0.50;;;6.20;99.90;;;;;;4918540;29;20066;-77
2023/06/02 00:17:07;;;;;;;1.08;0.82;;;6.20;99.90;;;;;;4900329;29;20111;-77
2023/06/02 00:19:35;;;;;;;0.60;0.60;;;6.10;99.90;;;;;;4912286;29;20083;-76
2023/06/02 00:22:06;;;;;;;2.97;0.90;;;6.10;99.90;;;;;;4884921;29;20099;-76
2023/06/02 00:24:34;;;;;;;1.52;0.80;;;6.10;99.90;;;;;;4901487;29;20580;-76
2023/06/02 00:27:02;;;;;;;2.42;1.00;;;6.10;99.90;;;;;;4904196;29;20055;-76
2023/06/02 00:29:29;;;;;;;1.25;1.00;;;6.10;99.90;;;;;;4914382;29;20501;-76
2023/06/02 00:31:57;;;;;;;2.42;1.02;;;6.10;99.90;;;;;;4900748;29;20138;-77
2023/06/02 00:34:26;;;;;;;1.48;0.80;;;6.10;99.90;;;;;;4900982;29;20056;-76
2023/06/02 00:36:53;;;;;;;1.73;0.90;;;6.10;99.90;;;;;;4898044;29;20540;-76
2023/06/02 00:39:21;;;;;;;2.67;0.70;;;6.00;99.90;;;;;;4898840;29;20088;-76
2023/06/02 00:41:49;;;;;;;1.15;0.63;;;6.10;99.90;;;;;;4882366;29;20055;-77
2023/06/02 00:44:16;;;;;;;2.95;0.80;;;6.00;99.90;;;;;;4882264;29;20565;-76
2023/06/02 00:46:45;;;;;;;2.45;0.93;;;6.00;99.90;;;;;;4891677;29;20056;-76
2023/06/02 00:49:12;;;;;;;1.17;0.80;;;6.00;99.90;;;;;;4866137;29;20062;-77
2023/06/02 00:51:45;;;;;;;3.45;0.77;;;6.00;99.90;;;;;;4897399;29;20061;-77
2023/06/02 00:54:15;;;;;;;3.58;1.05;;;6.00;99.90;;;;;;4906623;29;20076;-77
2023/06/02 00:56:43;;;;;;;2.05;1.00;;;6.00;99.90;;;;;;4914034;29;20123;-79
2023/06/02 00:59:12;;;;;;;0.88;0.82;;;6.10;99.90;;;;;;4916234;29;20059;-78
2023/06/02 01:01:40;;;;;;;1.65;0.90;;;6.00;99.90;;;;;;4914859;29;20048;-78
2023/06/02 01:04:08;;;;;;;1.00;0.60;;;6.00;99.90;;;;;;4879921;29;20044;-78
2023/06/02 01:06:40;;;;;;;1.40;1.05;;;6.00;99.90;;;;;;4900619;29;20139;-78
2023/06/02 01:09:13;;;;;;;2.72;1.65;;;6.00;99.90;;;;;;4897963;29;20052;-78
2023/06/02 01:11:40;;;;;;;10.77;1.50;;;6.00;99.90;;;;;;4882978;29;20052;-79
2023/06/02 01:14:09;;;;;;;1.75;1.40;;;6.10;99.90;;;;;;4912496;29;20104;-77
2023/06/02 01:16:38;;;;;;;2.90;1.10;;;6.20;99.90;;;;;;4916477;29;20060;-77
2023/06/02 01:19:13;;;;;;;3.95;1.42;;;6.20;99.90;;;;;;4899931;29;20067;-78
2023/06/02 01:21:47;;;;;;;2.50;2.15;;;6.30;99.90;;;;;;4898308;29;20056;-77
2023/06/02 01:24:17;;;;;;;3.15;1.50;;;6.30;99.90;;;;;;4910790;29;20050;-77
2023/06/02 01:26:45;;;;;;;5.53;1.77;;;6.30;99.90;;;;;;4900197;29;20056;-76
2023/06/02 01:29:12;;;;;;;3.22;1.70;;;6.40;99.90;;;;;;4900491;29;20055;-77
2023/06/02 01:31:46;;;;;;;5.57;1.80;;;6.40;99.90;;;;;;4906520;29;20517;-77
2023/06/02 01:34:20;;;;;;;3.25;1.77;;;6.40;99.90;;;;;;4899792;29;20056;-76
2023/06/02 01:36:52;;;;;;;4.10;2.20;;;6.40;99.90;;;;;;4884115;29;20092;-77
2023/06/02 01:39:23;;;;;;;3.13;2.00;;;6.40;99.90;;;;;;4898995;29;20083;-76
2023/06/02 01:41:52;;;;;;;2.08;1.52;;;6.40;99.90;;;;;;4893046;29;20485;-76
2023/06/02 01:44:22;;;;;;;2.55;1.42;;;6.40;99.90;;;;;;4916608;29;20056;-76
2023/06/02 01:46:50;;;;;;;2.75;1.73;;;6.30;99.90;;;;;;4899319;29;20052;-76
2023/06/02 01:49:18;;;;;;;1.83;1.60;;;6.40;99.90;;;;;;4892043;29;20191;-77
2023/06/02 01:51:46;;;;;;;2.90;1.60;;;6.40;99.90;;;;;;4882319;29;20083;-77
2023/06/02 01:54:14;;;;;;;1.98;1.30;;;6.40;99.90;;;;;;4880934;29;20059;-77
2023/06/02 01:56:44;;;;;;;6.22;1.25;;;6.40;99.90;;;;;;4880999;29;20155;-77
2023/06/02 01:59:12;;;;;;;2.08;1.42;;;6.30;99.90;;;;;;4887987;29;20100;-77
2023/06/02 02:01:42;;;;;;;4.20;1.30;;;6.30;99.90;;;;;;4897207;29;20462;-78
2023/06/02 02:04:09;;;;;;;2.60;1.77;;;6.30;99.90;;;;;;4914577;29;20063;-78
2023/06/02 02:06:37;;;;;;;4.78;2.10;;;6.30;99.90;;;;;;4902877;29;20048;-77
2023/06/02 02:09:07;;;;;;;5.50;2.30;;;6.30;99.90;;;;;;4890744;29;20143;-78
2023/06/02 02:11:34;;;;;;;3.13;2.40;;;6.30;99.90;;;;;;4889114;29;20063;-77
2023/06/02 02:14:04;;;;;;;3.42;2.33;;;6.30;99.90;;;;;;4899332;29;20104;-78
2023/06/02 02:16:33;;;;;;;3.45;2.35;;;6.30;99.90;;;;;;4879555;29;20060;-78
2023/06/02 02:19:01;;;;;;;4.32;2.53;;;6.20;99.90;;;;;;4899009;29;20143;-77
2023/06/02 02:21:30;;;;;;;3.47;2.58;;;6.20;99.90;;;;;;4895580;29;20147;-77
2023/06/02 02:23:58;;;;;;;3.97;2.97;;;6.20;99.90;;;;;;4866209;29;20057;-77
2023/06/02 02:26:26;;;;;;;3.85;3.25;;;6.20;99.90;;;;;;4911710;29;20134;-76
2023/06/02 02:28:53;;;;;;;3.45;2.88;;;6.30;99.90;;;;;;4905864;29;20059;-76
2023/06/02 02:31:23;;;;;;;7.78;3.80;;;6.30;99.90;;;;;;4898866;29;20083;-76
2023/06/02 02:33:51;;;;;;;10.18;3.42;;;6.30;99.90;;;;;;4903517;29;20063;-75
2023/06/02 02:36:19;;;;;;;5.50;3.88;;;6.30;99.90;;;;;;4913227;29;20060;-75
2023/06/02 02:38:47;;;;;;;6.60;3.58;;;6.30;99.90;;;;;;4895576;29;20091;-76
2023/06/02 02:41:15;;;;;;;6.18;3.33;;;6.30;99.90;;;;;;4864441;29;20111;-76
2023/06/02 02:43:43;;;;;;;5.03;3.38;;;6.30;99.90;;;;;;4903744;29;20063;-76
2023/06/02 02:46:11;;;;;;;7.85;3.53;;;6.30;99.90;;;;;;4892121;29;20076;-76
2023/06/02 02:48:40;;;;;;;9.73;4.28;;;6.30;99.90;;;;;;4879685;29;20076;-77
2023/06/02 02:51:07;;;;;;;6.85;3.33;;;6.30;99.90;;;;;;4897859;29;20057;-76
2023/06/02 02:53:35;;;;;;;5.93;3.28;;;6.30;99.90;;;;;;4907752;29;20049;-77
2023/06/02 02:56:03;;;;;;;8.00;2.97;;;6.40;99.90;;;;;;4879673;29;20048;-77
2023/06/02 02:58:32;;;;;;;5.53;3.10;;;6.40;99.90;;;;;;4879701;29;20116;-77
2023/06/02 03:01:00;;;;;;;7.47;3.78;;;6.40;99.90;;;;;;4901199;29;20075;-77
2023/06/02 03:03:28;;;;;;;4.32;2.28;;;6.40;99.90;;;;;;4894559;29;20053;-77
2023/06/02 03:05:57;;;;;;;2.92;2.40;;;6.40;99.90;;;;;;4879651;29;20119;-77
2023/06/02 03:08:26;;;;;;;4.40;2.08;;;6.50;99.90;;;;;;4889384;29;20103;-77
2023/06/02 03:10:55;;;;;;;7.90;2.67;;;6.50;99.90;;;;;;4924373;29;20092;-77
2023/06/02 03:13:23;;;;;;;4.03;1.80;;;6.50;99.90;;;;;;4882506;29;20434;-77
2023/06/02 03:15:52;;;;;;;3.55;1.90;;;6.50;99.90;;;;;;4863915;29;20063;-76
2023/06/02 03:18:21;;;;;;;5.57;1.45;;;6.60;99.90;;;;;;4881402;29;20069;-76
2023/06/02 03:20:49;;;;;;;4.20;1.73;;;6.60;99.90;;;;;;4905762;29;20080;-76
2023/06/02 03:23:20;;;;;;;2.88;1.33;;;6.60;99.90;;;;;;4889062;29;20048;-77
2023/06/02 03:25:49;;;;;;;2.67;1.08;;;6.70;99.90;;;;;;4897751;29;20048;-77
2023/06/02 03:28:16;;;;;;;1.25;1.00;;;6.70;99.90;;;;;;4880165;29;20095;-77
2023/06/02 03:30:44;;;;;;;3.33;1.13;;;6.80;99.90;;;;;;4892806;29;20058;-76
2023/06/02 03:33:12;;;;;;;1.77;1.20;;;6.80;99.90;;;;;;4897950;29;20480;-77
2023/06/02 03:35:40;;;;;;;1.83;1.15;;;6.90;99.90;;;;;;4897944;29;20115;-77
2023/06/02 03:38:08;;;;;;;1.75;1.35;;;6.90;99.90;;;;;;4900338;29;20052;-77
2023/06/02 03:40:37;;;;;;;5.78;1.85;;;6.90;99.90;;;;;;4910190;29;20052;-78
2023/06/02 03:43:04;;;;;;;4.57;1.75;;;6.90;99.90;;;;;;4882390;29;20098;-78
2023/06/02 03:45:32;;;;;;;4.70;1.65;;;6.90;99.90;;;;;;4880636;29;20066;-77
2023/06/02 03:47:59;;;;;;;11.82;1.60;;;7.00;99.90;;;;;;4880081;29;20045;-78
2023/06/02 03:50:28;;;;;;;6.38;2.00;;;7.00;99.90;;;;;;4895709;29;20053;-78
2023/06/02 03:52:56;;;;;;;4.10;1.58;;;7.00;99.90;;;;;;4879483;29;20139;-78
2023/06/02 03:55:24;;;;;;;3.45;1.50;;;7.10;99.90;;;;;;4903577;29;20048;-78
2023/06/02 03:57:53;;;;;;;16.98;1.50;;;7.10;99.90;;;;;;4881838;29;20530;-76
2023/06/02 04:00:21;;;;;;;5.50;1.40;;;7.10;99.90;;;;;;4893526;29;20049;-77
2023/06/02 04:02:53;;;;;;;4.80;2.37;;;7.20;99.90;;;;;;4881690;29;20044;-76
2023/06/02 04:05:24;;;;;;;2.90;1.48;;;7.20;99.90;;;;;;4893772;29;20060;-79
2023/06/02 04:07:52;;;;;;;7.10;1.52;;;7.30;99.90;;;;;;4888976;29;20052;-76
2023/06/02 04:10:20;;;;;;;3.75;1.13;;;7.40;99.90;;;;;;4903367;29;20076;-77
2023/06/02 04:12:48;;;;;;;6.72;1.50;;;7.50;99.90;;;;;;4896608;29;20397;-77
2023/06/02 04:15:17;;;;;;;1.77;1.25;;;7.50;99.90;;;;;;4905847;29;20459;-78
2023/06/02 04:17:51;;;;;;;5.65;1.30;;;7.60;99.90;;;;;;4892934;29;20060;-78
2023/06/02 04:20:18;;;;;;;5.25;1.20;;;7.60;99.90;;;;;;4887542;29;20143;-79
2023/06/02 04:22:50;;;;;;;5.95;1.45;;;7.70;99.90;;;;;;4896594;29;20106;-80
2023/06/02 04:25:21;;;;;;;7.95;1.75;;;7.80;99.90;;;;;;4910139;29;20497;-79
2023/06/02 04:27:49;;;;;;;7.72;1.40;;;7.80;99.90;;;;;;4904609;29;20060;-78
2023/06/02 04:30:19;;;;;;;4.63;1.60;;;7.90;99.90;;;;;;4881983;29;20079;-78
2023/06/02 04:32:46;;;;;;;5.05;1.23;;;8.00;99.90;;;;;;4897445;29;20048;-77
2023/06/02 04:35:14;;;;;;;4.43;1.70;;;8.10;99.90;;;;;;4893684;29;20048;-77
2023/06/02 04:37:46;;;;;;;2.83;0.85;;;8.20;99.90;;;;;;4908397;29;20059;-78
2023/06/02 04:40:38;;;;;;;7.30;1.25;;;8.20;99.90;;;;;;4873846;29;20508;-77
2023/06/02 04:43:06;;;;;;;2.92;0.98;;;8.30;99.90;;;;;;4913648;29;20398;-76
2023/06/02 04:45:35;;;;;;;1.45;0.73;;;8.40;99.90;;;;;;4884647;29;20054;-77
2023/06/02 04:48:03;;;;;;;4.00;0.90;;;8.40;99.90;;;;;;4881201;29;20536;-76
2023/06/02 04:50:31;;;;;;;3.33;0.73;;;8.40;99.90;;;;;;4891875;29;20048;-76
2023/06/02 04:52:59;;;;;;;3.78;0.98;;;8.50;99.90;;;;;;4886610;29;20060;-76
2023/06/02 04:55:26;;;;;;;1.73;0.40;;;8.60;99.90;;;;;;4895865;29;20052;-77
2023/06/02 04:57:54;;;;;;;1.30;0.52;;;8.70;99.90;;;;;;4895134;29;21308;-76
2023/06/02 05:00:24;;;;;;;0.60;0.55;;;8.80;99.90;;;;;;4915969;29;20052;-76
2023/06/02 05:02:53;;;;;;;3.38;0.30;;;8.80;99.90;;;;;;4896384;29;20087;-77
2023/06/02 05:05:21;;;;;;;3.60;0.60;;;8.90;99.90;;;;;;4893537;29;20469;-77
2023/06/02 05:07:48;;;;;;;1.50;0.35;;;8.90;99.90;;;;;;4908988;29;20108;-77
2023/06/02 05:10:16;;;;;;;1.85;0.55;;;9.00;99.90;;;;;;4887570;29;20045;-76
2023/06/02 05:12:47;;;;;;;1.17;0.50;;;9.20;99.90;;;;;;4875460;29;20052;-77
2023/06/02 05:15:16;;;;;;;0.75;0.45;;;9.40;99.90;;;;;;4873932;29;20053;-78
2023/06/02 05:17:44;;;;;;;1.67;0.60;;;9.50;99.90;;;;;;4893395;29;20079;-78
2023/06/02 05:20:20;;;;;;;0.50;0.40;;;9.60;99.90;;;;;;4897325;29;20055;-77
2023/06/02 05:22:49;;;;;;;5.13;0.63;;;9.80;99.90;;;;;;4900588;29;20631;-77
2023/06/02 05:25:17;;;;;;;1.52;0.20;;;9.90;99.90;;;;;;4910646;29;20130;-78
2023/06/02 05:27:45;;;;;;;3.00;0.30;;;10.00;99.90;;;;;;4913847;29;20044;-78
2023/06/02 05:30:14;;;;;;;4.40;0.88;;;10.30;99.90;;;;;;4883901;29;20052;-77
2023/06/02 05:32:44;;;;;;;3.58;0.20;;;10.50;99.90;;;;;;4896419;29;20052;-79
2023/06/02 05:35:31;;;;;;;;;;;;;;;;;;;;;
2023/06/02 05:41:52;;;;;;;1.58;0.63;;;11.50;99.90;;;;;;4915737;29;20052;-76
2023/06/02 05:44:20;;;;;;;0.20;0.20;;;12.30;99.90;;;;;;4905869;29;20052;-76
2023/06/02 05:46:47;;;;;;;2.05;0.45;;;12.30;99.90;;;;;;4911245;29;20060;-77
2023/06/02 05:49:17;;;;;;;2.50;0.30;;;11.90;99.90;;;;;;4896468;29;20056;-78
2023/06/02 05:51:46;;;;;;;0.57;0.32;;;11.90;99.90;;;;;;4896028;29;20176;-77
2023/06/02 05:54:15;;;;;;;4.35;0.40;;;12.30;99.90;;;;;;4904559;29;20564;-76
2023/06/02 05:56:42;;;;;;;1.23;0.35;;;12.60;98.80;;;;;;4907944;29;20056;-78
2023/06/02 05:59:10;;;;;;;0.50;0.40;;;12.70;98.00;;;;;;4876677;29;20048;-78
2023/06/02 06:01:39;;;;;;;0.52;0.45;;;13.00;96.80;;;;;;4899270;29;20088;-79
2023/06/02 06:04:07;;;;;;;1.05;0.40;;;13.70;95.50;;;;;;4917033;29;20509;-78
2023/06/02 06:06:39;;;;;;;17.95;1.85;;;13.70;94.10;;;;;;4887079;29;20235;-81
2023/06/02 06:09:08;;;;;;;0.35;0.20;;;13.60;94.60;;;;;;4877276;29;20064;-79
2023/06/02 06:11:38;;;;;;;0.80;0.40;;;13.70;93.40;;;;;;4875811;29;20053;-81
2023/06/02 06:14:07;;;;;;;1.33;0.40;;;14.30;92.10;;;;;;4897698;29;20055;-81
2023/06/02 06:16:38;;;;;;;1.77;0.50;;;15.20;90.20;;;;;;4912072;29;20047;-75
2023/06/02 06:19:09;;;;;;;;;;;15.80;82.70;;;;;;4890123;29;20144;-79
2023/06/02 06:21:37;;;;;;;3.80;0.55;;;16.30;82.80;;;;;;4903581;29;20293;-78
2023/06/02 06:24:06;;;;;;;0.80;0.50;;;16.60;78.80;;;;;;4890947;29;20049;-79
2023/06/02 06:26:37;;;;;;;1.58;0.20;;;16.90;76.30;;;;;;4888432;29;20071;-78
2023/06/02 06:29:05;;;;;;;1.83;0.55;;;16.90;73.00;;;;;;4891227;29;20538;-80
2023/06/02 06:31:35;;;;;;;0.50;0.40;;;16.10;73.30;;;;;;4890458;29;20104;-77
2023/06/02 06:34:04;;;;;;;2.28;0.88;;;15.30;75.20;;;;;;4888266;29;20051;-79
2023/06/02 06:36:33;;;;;;;0.98;0.40;;;14.90;76.50;;;;;;4895086;29;20079;-80
2023/06/02 06:39:02;;;;;;;3.63;0.28;;;14.50;78.60;;;;;;4910337;29;20052;-80
2023/06/02 06:41:30;;;;;;;5.53;0.63;;;14.10;81.00;;;;;;4875862;29;20052;-82
2023/06/02 06:43:59;;;;;;;6.43;0.70;;;13.90;82.10;;;;;;4891845;29;20428;-81
2023/06/02 06:46:28;;;;;;;4.85;1.00;;;13.70;82.10;;;;;;4909798;29;20190;-76
2023/06/02 06:49:00;;;;;;;2.63;0.55;;;13.90;82.10;;;;;;4876382;29;20071;-82
2023/06/02 06:51:28;;;;;;;5.05;0.50;;;15.00;78.30;;;;;;4906470;29;20056;-79
2023/06/02 06:53:59;;;;;;;2.85;0.43;;;15.20;77.10;;;;;;4892402;29;20143;-80
2023/06/02 06:56:28;;;;;;;1.60;0.50;;;14.90;75.10;;;;;;4909011;29;20048;-79
2023/06/02 06:58:55;;;;;;;2.15;0.52;;;14.80;77.10;;;;;;4904406;29;20055;-73
2023/06/02 07:01:24;;;;;;;2.40;0.60;;;15.10;76.00;;;;;;4909020;29;20059;-75
2023/06/02 07:04:00;;;;;;;2.78;0.50;;;15.10;74.90;;;;;;4914256;29;20052;-77
2023/06/02 07:06:28;;;;;;;1.77;0.40;;;15.30;75.20;;;;;;4894885;29;20052;-76
2023/06/02 07:08:57;;;;;;;0.60;0.40;;;15.00;75.40;;;;;;4904939;29;20104;-76
2023/06/02 07:11:26;;;;;;;1.95;0.40;;;14.70;76.40;;;;;;4904041;29;20253;-77
2023/06/02 07:13:53;;;;;;;5.10;0.30;;;14.80;76.70;;;;;;4891040;29;20047;-81
2023/06/02 07:16:21;;;;;;;31.67;2.03;;;14.50;77.70;;;;;;4898803;29;20449;-80
2023/06/02 07:18:52;;;;;;;3.15;0.50;;;14.40;79.90;;;;;;4905293;29;20051;-81
2023/06/02 07:21:20;;;;;;;8.45;2.83;;;14.50;78.50;;;;;;4913548;29;20055;-75
2023/06/02 07:23:47;;;;;;;2.58;0.65;;;14.60;79.00;;;;;;4909848;29;20174;-75
2023/06/02 07:26:15;;;;;;;2.88;0.38;;;14.90;75.90;;;;;;4908958;29;20093;-75
2023/06/02 07:28:43;;;;;;;2.55;0.38;;;14.70;75.50;;;;;;4887689;29;20048;-75
2023/06/02 07:31:11;;;;;;;1.38;0.50;;;14.30;76.50;;;;;;4913476;29;20111;-77
2023/06/02 07:33:38;;;;;;;3.80;0.47;;;14.10;77.10;;;;;;4896385;29;20044;-77
2023/06/02 07:36:07;;;;;;;1.08;0.50;;;13.80;78.80;;;;;;4909663;29;20048;-80
2023/06/02 07:38:35;;;;;;;1.45;0.40;;;13.50;78.00;;;;;;4903654;29;20149;-75
2023/06/02 07:41:03;;;;;;;2.08;0.65;;;13.80;79.00;;;;;;4910028;29;20147;-76
2023/06/02 07:43:30;;;;;;;0.75;0.32;;;14.20;78.50;;;;;;4892669;29;20151;-81
2023/06/02 07:45:59;;;;;;;3.03;0.55;;;15.50;78.90;;;;;;4905293;29;20056;-82
2023/06/02 07:48:26;;;;;;;2.03;0.80;;;16.90;69.80;;;;;;4887667;29;20061;-75
2023/06/02 07:50:54;;;;;;;1.25;0.60;;;18.00;66.90;;;;;;4901494;29;20149;-77
2023/06/02 07:53:23;;;;;;;0.88;0.47;;;18.80;66.50;;;;;;4891561;29;20473;-76
2023/06/02 07:56:01;;;;;;;4.05;0.60;;;19.00;62.30;;;;;;4914874;29;20072;-81
2023/06/02 07:58:32;;;;;;;3.92;0.73;;;18.40;60.70;;;;;;4906989;29;20084;-82
2023/06/02 08:01:11;;;;;;;6.45;1.00;;;17.50;61.90;;;;;;4904227;29;20108;-77
2023/06/02 08:03:39;;;;;;;1.90;0.40;;;18.10;61.60;;;;;;4906446;29;20104;-78
2023/06/02 08:06:07;;;;;;;1.27;0.57;;;19.10;59.70;;;;;;4912104;29;20044;-80
2023/06/02 08:08:36;;;;;;;2.30;0.80;;;20.40;56.90;;;;;;4906937;29;20064;-80
2023/06/02 08:11:04;;;;;;;3.53;0.60;;;20.90;54.30;;;;;;4893484;29;20465;-80
2023/06/02 08:13:32;;;;;;;1.02;0.30;;;21.30;54.10;;;;;;4906041;29;20134;-81
2023/06/02 08:16:00;;;;;;;1.00;0.70;;;21.90;54.40;;;;;;4909249;29;20099;-86
2023/06/02 08:18:27;;;;;;;6.70;0.75;;;21.90;53.10;;;;;;4894272;29;20063;-82
2023/06/02 08:21:04;;;;;;;4.53;0.63;;;21.10;52.20;;;;;;4900695;29;20138;-82
2023/06/02 08:23:32;;;;;;;5.13;0.45;;;19.90;52.20;;;;;;4918264;29;20048;-82
2023/06/02 08:26:03;;;;;;;2.40;0.98;;;18.40;55.10;;;;;;4895977;29;20504;-81
2023/06/02 08:28:33;;;;;;;6.55;0.80;;;17.20;58.60;;;;;;4915516;29;20421;-80
2023/06/02 08:31:01;;;;;;;9.15;0.70;;;16.10;62.80;;;;;;4891781;29;20573;-80
2023/06/02 08:33:33;;;;;;;4.55;0.93;;;15.20;67.80;;;;;;4876396;29;20147;-80
2023/06/02 08:36:08;;;;;;;5.47;1.00;;;14.60;72.00;;;;;;4899317;29;20056;-81
2023/06/02 08:38:40;;;;;;;4.88;0.68;;;14.00;80.00;;;;;;4913119;29;20049;-81
2023/06/02 08:41:12;;;;;;;8.07;1.13;;;13.60;86.20;;;;;;4909719;29;20059;-81
2023/06/02 08:43:43;;;;;;;5.95;4.05;;;14.00;91.60;;;;;;4910908;29;20052;-80
2023/06/02 08:46:15;;;;;;;3.55;0.80;;;14.20;92.00;;;;;;4910119;29;20139;-80
2023/06/02 08:48:46;;;;;;;3.00;0.90;;;14.00;93.80;;;;;;4906220;29;20063;-83
2023/06/02 08:51:22;;;;;;;2.70;0.70;;;13.80;93.50;;;;;;4896087;29;20051;-82
2023/06/02 08:53:50;;;;;;;3.45;1.33;;;13.70;94.60;;;;;;4877395;29;20155;-80
2023/06/02 08:56:18;;;;;;;2.33;0.75;;;13.60;95.10;;;;;;4899323;29;20052;-82
2023/06/02 08:58:48;;;;;;;1.77;1.00;;;13.80;97.00;;;;;;4909325;29;20529;-80
2023/06/02 09:01:16;;;;;;;1.15;0.70;;;15.20;99.40;;;;;;4916483;29;20064;-81
2023/06/02 09:03:46;;;;;;;2.65;1.10;;;16.30;94.70;;;;;;4891827;29;20565;-81
2023/06/02 09:06:25;;;;;;;2.00;0.82;;;16.40;91.30;;;;;;4912711;29;20052;-79
2023/06/02 09:08:54;;;;;;;3.08;0.50;;;15.90;87.40;;;;;;4916366;29;20048;-77
2023/06/02 09:11:25;;;;;;;5.20;0.85;;;15.20;89.20;;;;;;4917132;29;20190;-78
2023/06/02 09:13:54;;;;;;;3.15;1.23;;;14.50;90.20;;;;;;4909063;29;20052;-77
2023/06/02 09:16:23;;;;;;;7.90;0.70;;;13.70;91.90;;;;;;4894838;29;20159;-77
2023/06/02 09:18:59;;;;;;;3.63;0.40;;;13.00;93.60;;;;;;4913856;29;20060;-77
2023/06/02 09:21:29;;;;;;;2.97;0.40;;;12.50;96.20;;;;;;4891560;29;20053;-77
2023/06/02 09:23:58;;;;;;;4.63;0.98;;;11.70;98.30;;;;;;4897023;29;20056;-78
2023/06/02 09:26:30;;;;;;;1.58;1.00;;;11.20;99.90;;;;;;4915728;29;20374;-76
2023/06/02 09:29:10;;;;;;;1.80;0.52;;;10.70;99.90;;;;;;4893437;29;20060;-76
2023/06/02 09:31:50;;;;;;;2.63;0.55;;;10.40;99.90;;;;;;4908014;29;20047;-75
2023/06/02 09:34:22;;;;;;;1.48;0.73;;;10.20;99.90;;;;;;4909731;29;20166;-74
2023/06/02 09:36:53;;;;;;;6.05;1.00;;;10.20;99.90;;;;;;4873315;29;20493;-77
2023/06/02 09:39:33;;;;;;;3.00;0.40;;;10.20;99.90;;;;;;4887418;29;20044;-80
2023/06/02 09:42:03;;;;;;;0.80;0.30;;;10.20;99.90;;;;;;4908946;29;20060;-81
2023/06/02 09:44:32;;;;;;;1.05;0.30;;;10.30;99.90;;;;;;4896185;29;20063;-84
2023/06/02 09:47:02;;;;;;;0.82;0.43;;;10.50;99.90;;;;;;4896095;29;20095;-80
2023/06/02 09:49:42;;;;;;;6.10;1.27;;;11.20;99.90;;;;;;4909645;29;20083;-83
2023/06/02 09:52:15;;;;;;;0.52;0.40;;;12.30;99.90;;;;;;4896264;29;20089;-85
2023/06/02 09:54:44;;;;;;;0.20;0.20;;;13.80;99.90;;;;;;4891003;29;20054;-83
2023/06/02 09:57:13;;;;;;;0.30;0.30;;;14.80;99.90;;;;;;4894785;29;20512;-85
2023/06/02 09:59:42;;;;;;;1.65;0.38;;;16.10;99.90;;;;;;4904446;29;20083;-84
2023/06/02 10:02:14;;;;;;;4.18;0.30;;;17.80;95.10;;;;;;4908753;29;20119;-85
2023/06/02 10:04:43;;;;;;;1.27;0.22;;;19.30;82.00;;;;;;4892599;29;20055;-81
2023/06/02 10:07:33;;;;;;;0.75;0.50;;;20.30;71.30;;;;;;4911199;29;20056;-85
2023/06/02 10:10:19;;;;;;;0.38;0.38;;;19.80;66.10;;;;;;4909849;29;20135;-81
2023/06/02 10:13:10;;;;;;;0.77;0.30;;;18.20;68.00;;;;;;4907230;29;20063;-80
2023/06/02 10:16:01;;;;;;;0.98;0.40;;;16.50;72.20;;;;;;4890394;29;20425;-85
2023/06/02 10:19:18;;;;;;;2.75;0.50;;;15.40;77.00;;;;;;4896123;29;20064;-80
2023/06/02 10:22:07;;;;;;;0.73;0.30;;;14.70;81.60;;;;;;4894581;29;20071;-86
2023/06/02 10:25:04;;;;;;;2.13;0.30;;;14.60;84.80;;;;;;4912367;29;20519;-85
2023/06/02 10:27:36;;;;;;;0.35;0.30;;;14.80;88.00;;;;;;4910530;29;20050;-83
2023/06/02 10:30:07;;;;;;;2.10;0.40;;;15.00;88.60;;;;;;4904813;29;20056;-83
2023/06/02 10:32:55;;;;;;;0.40;0.30;;;14.90;84.90;;;;;;4917068;29;20088;-84
2023/06/02 10:35:58;;;;;;;1.70;0.30;;;14.80;85.00;;;;;;4909239;29;20044;-80
2023/06/02 10:38:27;;;;;;;1.13;0.40;;;14.70;86.50;;;;;;4906794;29;20386;-80
2023/06/02 10:40:55;;;;;;;1.00;0.57;;;14.90;86.60;;;;;;4908493;29;20049;-80
2023/06/02 10:43:23;;;;;;;0.43;0.32;;;15.30;86.60;;;;;;4896465;29;20130;-77
2023/06/02 10:45:55;;;;;;;0.90;0.40;;;15.50;85.80;;;;;;4911492;29;20568;-77
2023/06/02 10:48:40;;;;;;;2.13;0.50;;;15.60;86.40;;;;;;4912477;29;20052;-75
2023/06/02 10:51:09;;;;;;;1.33;0.60;;;15.80;87.90;;;;;;4909483;29;20064;-76
2023/06/02 10:54:27;;;;;;;1.23;0.40;;;15.60;89.60;;;;;;4906305;29;20513;-79
2023/06/02 10:56:58;;;;;;;0.70;0.40;;;15.00;85.90;;;;;;4911426;29;20765;-79
2023/06/02 10:59:36;;;;;;;2.92;1.98;;;14.40;84.50;;;;;;4913043;29;20067;-80
2023/06/02 11:02:05;;;;;;;1.70;0.40;;;14.30;86.30;;;;;;4908272;29;20059;-79
2023/06/02 11:04:34;;;;;;;0.98;0.47;;;14.70;84.50;;;;;;4896248;29;20052;-79
2023/06/02 11:07:21;;;;;;;1.27;0.50;;;16.30;81.10;;;;;;4913289;29;20482;-81
2023/06/02 11:09:55;;;;;;;0.50;0.50;;;18.80;74.80;;;;;;4898902;29;20060;-82
2023/06/02 11:13:04;;;;;;;1.10;0.60;;;19.60;67.10;;;;;;4910626;29;20044;-79
2023/06/02 11:15:32;;;;;;;0.47;0.40;;;19.20;66.50;;;;;;4896216;29;20056;-79
2023/06/02 11:18:01;;;;;;;1.20;0.60;;;18.60;68.00;;;;;;4912348;29;20459;-80
2023/06/02 11:20:36;;;;;;;1.10;1.02;;;18.70;67.30;;;;;;4909527;29;20111;-80
2023/06/02 11:23:05;;;;;;;1.80;0.60;;;18.60;62.50;;;;;;4897600;29;20420;-76
2023/06/02 11:25:32;;;;;;;1.65;0.60;;;18.00;65.50;;;;;;4897630;29;20488;-75
2023/06/02 11:28:00;;;;;;;0.65;0.45;;;18.30;66.90;;;;;;4913047;29;20150;-76
2023/06/02 11:30:28;;;;;;;0.68;0.50;;;20.20;62.10;;;;;;4907992;29;20052;-76
2023/06/02 11:32:56;;;;;;;0.57;0.50;;;22.10;57.70;;;;;;4896893;29;20059;-78
2023/06/02 11:35:27;;;;;;;1.08;0.70;;;23.40;54.80;;;;;;4897900;29;20075;-80
2023/06/02 11:38:04;;;;;;;0.90;0.50;;;23.70;52.60;;;;;;4909752;29;20048;-79
2023/06/02 11:40:34;;;;;;;0.52;0.40;;;24.10;50.00;;;;;;4909763;29;20083;-79
2023/06/02 11:43:03;;;;;;;2.13;0.63;;;24.90;49.90;;;;;;4914475;29;20048;-79
2023/06/02 11:45:31;;;;;;;3.05;0.57;;;25.70;47.00;;;;;;4900851;29;20051;-79
2023/06/02 11:48:02;;;;;;;3.22;0.57;;;26.10;45.10;;;;;;4900575;29;20776;-81
2023/06/02 11:50:31;;;;;;;1.50;0.30;;;26.50;44.20;;;;;;4908468;29;20056;-77
2023/06/02 11:52:59;;;;;;;2.20;0.82;;;26.40;43.10;;;;;;4912802;29;20059;-78
2023/06/02 11:55:28;;;;;;;2.15;0.60;;;25.30;41.90;;;;;;4909650;29;20060;-76
2023/06/02 11:58:22;;;;;;;1.02;0.40;;;24.90;44.40;;;;;;4894426;29;20504;-76
2023/06/02 12:00:52;;;;;;;3.03;0.50;;;25.50;43.00;;;;;;4914749;29;20063;-76
2023/06/02 12:03:19;;;;;;;3.05;1.50;;;26.20;43.10;;;;;;4909712;29;20048;-75
2023/06/02 12:05:55;;;;;;;;;;;26.70;41.80;;;;;;4907677;29;20520;-76
2023/06/02 12:08:26;;;;;;;2.00;1.55;;;27.30;41.60;;;;;;4915417;29;20394;-75
2023/06/02 12:10:54;;;;;;;4.95;1.60;;;27.60;40.50;;;;;;4895361;29;20760;-74
2023/06/02 12:13:26;;;;;;;0.95;0.95;;;28.20;40.00;;;;;;4911170;29;20127;-78
2023/06/02 12:15:54;;;;;;;;;;;28.60;40.00;;;;;;4921077;29;20055;-75
2023/06/02 12:18:29;;;;;;;2.03;0.77;;;28.30;39.40;;;;;;4918357;29;20307;-76
2023/06/02 12:20:59;;;;;;;0.80;0.50;;;27.80;41.20;;;;;;4918330;29;20579;-76
2023/06/02 12:23:46;;;;;;;2.05;0.70;;;27.80;40.00;;;;;;4892728;29;20051;-76
2023/06/02 12:26:13;;;;;;;1.55;0.30;;;27.70;40.50;;;;;;4919392;29;20051;-80
2023/06/02 12:28:41;;;;;;;1.52;0.55;;;27.70;40.30;;;;;;4915566;29;20043;-76
2023/06/02 12:31:09;;;;;;;0.38;0.32;;;27.70;40.70;;;;;;4899151;29;20059;-78
2023/06/02 12:33:37;;;;;;;0.55;0.50;;;28.10;41.30;;;;;;4911536;29;20139;-76
2023/06/02 12:36:07;;;;;;;5.30;0.65;;;28.10;39.90;;;;;;4917554;29;20067;-77
2023/06/02 12:38:35;;;;;;;2.47;0.50;;;28.10;40.00;;;;;;4915320;29;20052;-77
2023/06/02 12:41:03;;;;;;;0.60;0.30;;;28.20;40.30;;;;;;4896981;29;20421;-79
2023/06/02 12:43:31;;;;;;;0.55;0.40;;;28.50;40.40;;;;;;4913169;29;20564;-76
2023/06/02 12:45:58;;;;;;;2.58;0.70;;;28.50;39.20;;;;;;4871455;29;20045;-76
2023/06/02 12:48:26;;;;;;;0.40;0.40;;;28.50;38.90;;;;;;4909742;29;20504;-76
2023/06/02 12:50:53;;;;;;;3.22;0.50;;;28.50;39.20;;;;;;4881976;29;20056;-78
2023/06/02 12:53:22;;;;;;;0.68;0.40;;;28.50;39.20;;;;;;4891124;29;20132;-76
2023/06/02 12:55:50;;;;;;;1.05;0.40;;;28.40;38.90;;;;;;4917087;29;20056;-75
2023/06/02 12:58:18;;;;;;;1.50;0.63;;;28.60;38.60;;;;;;4916646;29;20052;-76
2023/06/02 13:00:47;;;;;;;2.10;0.30;;;28.50;39.00;;;;;;4897161;29;20163;-75
2023/06/02 13:03:15;;;;;;;1.48;0.40;;;28.50;38.90;;;;;;4915580;29;20068;-75
2023/06/02 13:05:57;;;;;;;0.50;0.40;;;28.50;38.80;;;;;;4893627;29;20463;-75
2023/06/02 13:08:27;;;;;;;2.28;0.40;;;28.10;38.10;;;;;;4898947;29;20048;-75
2023/06/02 13:10:56;;;;;;;0.47;0.40;;;27.80;39.10;;;;;;4913695;29;20075;-75
2023/06/02 13:13:24;;;;;;;1.70;0.73;;;27.70;38.90;;;;;;4889156;29;20096;-75
2023/06/02 13:15:52;;;;;;;0.63;0.57;;;27.70;38.70;;;;;;4897693;29;20067;-77